Time;durP1;ratioP1;P1;durP2;ratioP2;P2;SDS_P1;SDS_P2;PMS_P1;PMS_P2;Temp;Humidity;BMP_temperature;BMP_pressure;BME280_temperature;BME280_humidity;BME280_pressure;Samples;Min_cycle;Max_cycle;Signal;HPM_P1;HPM_P2
2023/09/09 00:02:15;;;;;;;15.18;11.93;;;13.70;99.90;;;14.07;100.00;100539.53;5034383;28;20524;-79
2023/09/09 00:04:40;;;;;;;14.68;11.93;;;13.70;99.90;;;14.05;100.00;100525.25;5034581;28;20497;-79
2023/09/09 00:07:06;;;;;;;15.77;13.05;;;13.70;99.90;;;14.09;100.00;100520.94;5028391;28;20044;-79
2023/09/09 00:09:32;;;;;;;17.73;13.30;;;13.70;99.90;;;14.13;100.00;100503.97;5034586;28;20036;-79
2023/09/09 00:11:58;;;;;;;16.85;13.52;;;13.70;99.90;;;14.10;100.00;100505.31;5030205;28;20029;-79
2023/09/09 00:14:25;;;;;;;16.58;13.93;;;13.70;99.90;;;14.04;100.00;100503.53;5021614;28;20342;-79
2023/09/09 00:16:51;;;;;;;17.42;13.55;;;13.60;99.90;;;13.96;100.00;100507.50;5033914;28;20506;-79
2023/09/09 00:19:21;;;;;;;19.42;13.70;;;13.60;99.90;;;13.87;100.00;100496.09;5033623;28;20041;-79
2023/09/09 00:21:47;;;;;;;17.08;14.50;;;13.50;99.90;;;13.85;100.00;100498.25;5033965;28;20041;-79
2023/09/09 00:24:12;;;;;;;17.48;13.82;;;13.50;99.90;;;13.79;100.00;100494.53;5038780;28;20091;-79
2023/09/09 00:26:38;;;;;;;16.60;14.80;;;13.40;99.90;;;13.80;100.00;100489.91;5033906;28;20041;-79
2023/09/09 00:29:04;;;;;;;18.65;15.13;;;13.40;99.90;;;13.77;100.00;100474.75;5033355;28;20063;-79
2023/09/09 00:31:30;;;;;;;17.25;15.00;;;13.40;99.90;;;13.81;100.00;100477.88;5020007;28;20037;-79
2023/09/09 00:33:56;;;;;;;16.50;14.15;;;13.40;99.90;;;13.77;100.00;100479.41;5033724;28;20029;-78
2023/09/09 00:36:22;;;;;;;18.92;14.38;;;13.40;99.90;;;13.68;100.00;100469.91;5033717;28;20477;-79
2023/09/09 00:38:47;;;;;;;16.70;13.50;;;13.30;99.90;;;13.65;100.00;100479.44;5000626;28;20128;-78
2023/09/09 00:41:15;;;;;;;14.68;12.68;;;13.30;99.90;;;13.55;100.00;100477.31;5018203;28;20107;-79
2023/09/09 00:43:44;;;;;;;17.95;14.30;;;13.20;99.90;;;13.49;100.00;100473.63;5022513;28;20497;-78
2023/09/09 00:46:11;;;;;;;20.58;16.30;;;13.20;99.90;;;13.53;100.00;100465.78;5015761;28;20052;-78
2023/09/09 00:48:38;;;;;;;19.98;14.60;;;13.10;99.90;;;13.62;100.00;100455.25;5014851;28;20040;-78
2023/09/09 00:51:11;;;;;;;18.60;14.65;;;13.20;99.90;;;13.76;100.00;100428.38;5029629;28;20025;-78
2023/09/09 00:53:38;;;;;;;22.02;17.08;;;13.40;99.90;;;13.88;100.00;100418.22;5021920;28;20120;-78
2023/09/09 00:56:06;;;;;;;23.13;18.52;;;13.50;99.90;;;14.04;100.00;100360.91;5032711;28;20044;-78
2023/09/09 00:58:32;;;;;;;21.25;18.90;;;13.70;99.90;;;14.09;100.00;100347.31;5032952;28;20052;-78
2023/09/09 01:01:01;;;;;;;25.63;18.20;;;13.70;99.90;;;14.07;100.00;100346.72;5014798;28;20381;-78
2023/09/09 01:03:27;;;;;;;22.55;18.48;;;13.70;99.90;;;14.08;100.00;100342.91;5032792;28;20060;-77
2023/09/09 01:05:56;;;;;;;20.85;17.17;;;13.70;99.90;;;13.99;100.00;100344.38;5032605;28;20040;-78
2023/09/09 01:08:29;;;;;;;;;;;13.60;99.90;;;13.90;100.00;100374.09;5033150;28;20033;-77
2023/09/09 01:10:55;;;;;;;19.60;14.55;;;13.50;99.90;;;13.75;100.00;100391.09;5032756;28;20369;-77
2023/09/09 01:13:23;;;;;;;17.02;14.35;;;13.40;99.90;;;13.63;100.00;100391.97;5031314;28;20639;-78
2023/09/09 01:15:49;;;;;;;18.58;14.02;;;13.30;99.90;;;13.55;100.00;100399.75;5032864;28;20082;-78
2023/09/09 01:18:17;;;;;;;16.38;13.10;;;13.20;99.90;;;13.49;100.00;100402.38;5032289;28;20048;-78
2023/09/09 01:20:49;;;;;;;;;;;13.10;99.90;;;13.44;100.00;100393.22;5015032;28;20373;-78
2023/09/09 01:23:15;;;;;;;18.73;14.32;;;13.10;99.90;;;13.42;100.00;100406.28;5032427;28;20024;-78
2023/09/09 01:25:41;;;;;;;17.67;15.32;;;13.10;99.90;;;13.35;100.00;100398.19;5028744;28;20033;-77
2023/09/09 01:28:07;;;;;;;19.63;16.95;;;13.00;99.90;;;13.35;100.00;100401.78;5025239;28;20099;-78
2023/09/09 01:30:32;;;;;;;22.38;18.13;;;13.00;99.90;;;13.42;100.00;100387.97;5032883;28;20527;-78
2023/09/09 01:32:58;;;;;;;22.58;19.23;;;13.10;99.90;;;13.60;100.00;100364.22;5032096;28;20431;-77
2023/09/09 01:35:24;;;;;;;23.05;18.65;;;13.30;99.90;;;13.70;100.00;100350.72;5014517;28;20515;-78
2023/09/09 01:37:50;;;;;;;23.25;19.60;;;13.30;99.90;;;13.71;100.00;100348.78;5019939;28;20057;-77
2023/09/09 01:40:16;;;;;;;24.75;19.25;;;13.30;99.90;;;13.66;100.00;100347.63;5032320;28;20497;-78
2023/09/09 01:42:42;;;;;;;20.80;17.98;;;13.30;99.90;;;13.59;100.00;100354.31;5029257;28;20036;-78
2023/09/09 01:45:09;;;;;;;19.25;15.93;;;13.20;99.90;;;13.51;100.00;100358.28;5032287;28;20037;-77
2023/09/09 01:47:35;;;;;;;21.02;17.25;;;13.10;99.90;;;13.42;100.00;100365.19;5014056;28;20404;-78
2023/09/09 01:50:02;;;;;;;22.65;17.33;;;13.00;99.90;;;13.31;100.00;100356.78;5032241;28;20040;-78
2023/09/09 01:52:28;;;;;;;20.13;16.58;;;13.00;99.90;;;13.28;100.00;100370.13;5031712;28;20488;-77
2023/09/09 01:54:53;;;;;;;20.85;17.23;;;12.90;99.90;;;13.16;100.00;100365.50;5032252;28;20042;-78
2023/09/09 01:57:21;;;;;;;20.75;16.70;;;12.80;99.90;;;13.15;100.00;100360.25;5002348;28;20159;-79
2023/09/09 01:59:47;;;;;;;19.65;17.40;;;12.80;99.90;;;13.16;100.00;100368.25;5030700;28;20030;-78
2023/09/09 02:02:16;;;;;;;18.67;16.05;;;12.80;99.90;;;13.09;100.00;100362.88;5031683;28;20038;-78
2023/09/09 02:04:42;;;;;;;20.52;17.77;;;12.80;99.90;;;13.03;100.00;100363.00;5031537;28;20511;-78
2023/09/09 02:07:09;;;;;;;22.55;17.52;;;12.70;99.90;;;12.99;100.00;100357.19;5002766;28;20128;-78
2023/09/09 02:09:35;;;;;;;22.75;17.63;;;12.70;99.90;;;12.98;100.00;100358.25;5011480;28;20113;-78
2023/09/09 02:12:03;;;;;;;23.55;18.67;;;12.60;99.90;;;13.02;100.00;100353.13;5031610;28;20047;-78
2023/09/09 02:14:31;;;;;;;22.67;18.13;;;12.70;99.90;;;13.05;100.00;100347.16;5013571;28;20034;-78
2023/09/09 02:16:57;;;;;;;23.77;19.50;;;12.70;99.90;;;13.11;100.00;100334.44;5037757;28;20087;-78
2023/09/09 02:19:23;;;;;;;26.55;20.60;;;12.70;99.90;;;13.25;100.00;100313.91;5013598;28;20095;-78
2023/09/09 02:21:48;;;;;;;24.70;21.25;;;12.90;99.90;;;13.38;100.00;100297.19;5026994;28;20076;-78
2023/09/09 02:24:15;;;;;;;25.63;20.15;;;13.00;99.90;;;13.38;100.00;100296.34;5034404;28;20025;-78
2023/09/09 02:26:41;;;;;;;26.10;20.40;;;13.10;99.90;;;13.43;100.00;100295.66;5031468;28;20087;-78
2023/09/09 02:29:07;;;;;;;25.10;19.63;;;13.10;99.90;;;13.50;100.00;100290.84;5031398;28;20426;-78
2023/09/09 02:31:32;;;;;;;25.48;20.67;;;13.10;99.90;;;13.46;100.00;100279.56;5034267;28;20033;-78
2023/09/09 02:33:58;;;;;;;25.15;20.08;;;13.10;99.90;;;13.51;100.00;100290.63;5009971;28;20036;-78
2023/09/09 02:36:24;;;;;;;28.67;22.27;;;13.20;99.90;;;13.53;100.00;100265.72;5027412;28;20037;-78
2023/09/09 02:38:50;;;;;;;23.65;20.17;;;13.20;99.90;;;13.48;100.00;100273.81;5013347;28;20040;-78
2023/09/09 02:41:15;;;;;;;28.10;20.70;;;13.10;99.90;;;13.40;100.00;100265.97;5013938;28;20053;-78
2023/09/09 02:43:41;;;;;;;25.92;19.98;;;13.00;99.90;;;13.49;100.00;100264.53;5025520;28;20044;-78
2023/09/09 02:46:08;;;;;;;23.02;19.60;;;13.20;99.90;;;13.43;100.00;100258.13;5019153;28;20064;-78
2023/09/09 02:48:34;;;;;;;25.42;21.13;;;13.20;99.90;;;13.50;100.00;100266.19;5030612;28;20029;-78
2023/09/09 02:50:59;;;;;;;25.45;18.80;;;13.20;99.90;;;13.38;100.00;100272.53;5031161;28;20489;-78
2023/09/09 02:53:25;;;;;;;20.02;16.75;;;13.00;99.90;;;13.24;100.00;100288.44;5013873;28;20045;-78
2023/09/09 02:55:51;;;;;;;20.83;17.15;;;12.90;99.90;;;13.12;100.00;100304.03;5013867;28;20135;-78
2023/09/09 02:58:16;;;;;;;22.00;16.92;;;12.80;99.90;;;12.96;100.00;100316.59;5029789;28;20025;-78
2023/09/09 03:00:42;;;;;;;17.30;14.95;;;12.60;99.90;;;12.80;100.00;100324.47;5028612;28;20039;-78
2023/09/09 03:03:08;;;;;;;17.67;14.73;;;12.50;99.90;;;12.68;100.00;100333.78;5021728;28;20099;-78
2023/09/09 03:05:35;;;;;;;19.30;14.50;;;12.30;99.90;;;12.55;100.00;100332.09;5027280;28;20072;-78
2023/09/09 03:08:03;;;;;;;17.65;14.98;;;12.20;99.90;;;12.52;100.00;100344.34;5037058;28;20079;-78
2023/09/09 03:10:29;;;;;;;;;;;12.10;99.90;;;12.45;100.00;100328.03;5029044;28;20449;-78
2023/09/09 03:12:57;;;;;;;19.42;16.65;;;12.10;99.90;;;12.55;100.00;100329.38;5032823;28;20007;-78
2023/09/09 03:15:23;;;;;;;;;;;12.20;99.90;;;12.54;100.00;100314.84;5028266;28;20435;-78
2023/09/09 03:17:50;;;;;;;21.40;17.23;;;12.20;99.90;;;12.56;100.00;100312.69;5029689;28;20020;-78
2023/09/09 03:20:16;;;;;;;22.73;17.95;;;12.20;99.90;;;12.59;100.00;100314.13;5012984;28;20396;-78
2023/09/09 03:22:42;;;;;;;22.85;18.02;;;12.20;99.90;;;12.60;100.00;100302.97;5025758;28;20033;-78
2023/09/09 03:25:09;;;;;;;20.98;18.50;;;12.20;99.90;;;12.66;100.00;100292.94;5025064;28;20533;-78
2023/09/09 03:27:35;;;;;;;25.23;20.73;;;12.40;99.90;;;12.63;100.00;100279.75;5030760;28;20041;-79
2023/09/09 03:30:03;;;;;;;28.60;21.33;;;12.40;99.90;;;12.72;100.00;100277.47;5018369;28;20409;-77
2023/09/09 03:32:30;;;;;;;30.40;23.30;;;12.40;99.90;;;12.91;100.00;100256.25;5012917;28;20113;-77
2023/09/09 03:34:55;;;;;;;29.65;23.45;;;12.60;99.90;;;13.05;100.00;100233.00;5030466;28;20037;-78
2023/09/09 03:37:22;;;;;;;34.17;24.45;;;12.70;99.90;;;13.15;100.00;100221.44;5030807;28;20112;-77
2023/09/09 03:39:48;;;;;;;32.38;23.63;;;12.90;99.90;;;13.14;100.00;100218.91;5020823;28;20484;-77
2023/09/09 03:42:14;;;;;;;27.33;22.00;;;12.90;99.90;;;13.13;100.00;100228.22;4996266;28;20041;-78
2023/09/09 03:44:41;;;;;;;28.63;21.20;;;12.80;99.90;;;13.09;100.00;100228.69;5029431;28;20037;-77
2023/09/09 03:47:06;;;;;;;26.60;22.00;;;12.80;99.90;;;13.12;100.00;100232.84;5030520;28;20136;-77
2023/09/09 03:49:33;;;;;;;28.73;22.23;;;12.80;99.90;;;13.07;100.00;100225.38;5028407;28;20476;-77
2023/09/09 03:51:59;;;;;;;29.08;22.15;;;12.90;99.90;;;13.05;100.00;100221.22;5015381;28;20091;-77
2023/09/09 03:54:25;;;;;;;30.58;24.92;;;12.80;99.90;;;13.05;100.00;100211.09;5027208;28;20389;-77
2023/09/09 03:56:51;;;;;;;32.83;25.27;;;12.80;99.90;;;13.16;100.00;100192.13;5013052;28;20037;-77
2023/09/09 03:59:17;;;;;;;31.92;25.77;;;12.90;99.90;;;13.19;100.00;100186.13;5029972;28;20040;-78
2023/09/09 04:01:43;;;;;;;30.45;23.50;;;13.00;99.90;;;13.23;100.00;100187.31;5022003;28;20022;-78
2023/09/09 04:04:09;;;;;;;27.45;23.48;;;12.90;99.90;;;13.15;100.00;100190.44;5001185;28;20041;-78
2023/09/09 04:06:35;;;;;;;29.45;22.65;;;12.90;99.90;;;13.11;100.00;100201.06;5016716;28;20087;-78
2023/09/09 04:09:00;;;;;;;26.95;22.50;;;12.70;99.90;;;13.12;100.00;100202.72;5022271;28;20030;-78
2023/09/09 04:11:26;;;;;;;30.38;22.50;;;12.80;99.90;;;13.12;100.00;100208.19;5016726;28;20370;-78
2023/09/09 04:13:52;;;;;;;28.98;22.98;;;12.80;99.90;;;13.12;100.00;100213.66;5033957;28;20108;-78
2023/09/09 04:16:18;;;;;;;28.20;22.40;;;12.80;99.90;;;13.09;100.00;100227.84;5022060;28;20048;-79
2023/09/09 04:18:44;;;;;;;28.08;20.92;;;12.70;99.90;;;13.08;100.00;100228.94;5030708;28;20034;-78
2023/09/09 04:21:10;;;;;;;26.63;21.23;;;12.70;99.90;;;13.03;100.00;100228.84;5030488;28;20866;-77
2023/09/09 04:23:36;;;;;;;25.40;20.55;;;12.60;99.90;;;12.99;100.00;100238.63;5022799;28;20538;-78
2023/09/09 04:26:02;;;;;;;25.02;19.35;;;12.60;99.90;;;12.93;100.00;100243.16;5017772;28;20506;-78
2023/09/09 04:28:27;;;;;;;28.48;20.42;;;12.50;99.90;;;12.87;100.00;100236.75;5033371;28;20093;-78
2023/09/09 04:30:54;;;;;;;23.45;19.42;;;12.50;99.90;;;12.88;100.00;100252.09;5015910;28;20037;-78
2023/09/09 04:33:19;;;;;;;24.42;19.13;;;12.50;99.90;;;12.85;100.00;100249.00;5018389;28;20034;-78
2023/09/09 04:35:46;;;;;;;24.35;19.27;;;12.40;99.90;;;12.80;100.00;100253.31;5011228;28;20076;-78
2023/09/09 04:38:12;;;;;;;24.23;18.92;;;12.40;99.90;;;12.80;100.00;100247.84;4996688;28;20029;-78
2023/09/09 04:40:40;;;;;;;21.88;18.00;;;12.40;99.90;;;12.75;100.00;100250.47;5028936;28;20045;-78
2023/09/09 04:43:07;;;;;;;26.25;19.40;;;12.30;99.90;;;12.77;100.00;100252.94;5015518;28;20400;-78
2023/09/09 04:45:35;;;;;;;26.42;20.30;;;12.40;99.90;;;12.83;100.00;100242.94;5015946;28;20032;-78
2023/09/09 04:48:01;;;;;;;26.48;19.67;;;12.40;99.90;;;12.80;100.00;100256.03;5034470;28;20103;-78
2023/09/09 04:50:27;;;;;;;23.20;17.40;;;12.40;99.90;;;12.64;100.00;100254.88;5012796;28;20393;-78
2023/09/09 04:52:53;;;;;;;23.27;17.77;;;12.30;99.90;;;12.56;100.00;100287.25;5030820;28;20056;-78
2023/09/09 04:55:19;;;;;;;20.25;17.15;;;12.20;99.90;;;12.43;100.00;100297.34;5015200;28;20037;-78
2023/09/09 04:57:45;;;;;;;24.80;18.40;;;12.10;99.90;;;12.45;100.00;100294.41;5033097;28;20484;-78
2023/09/09 05:00:12;;;;;;;27.08;20.33;;;12.00;99.90;;;12.58;100.00;100279.63;5027334;28;20103;-78
2023/09/09 05:02:39;;;;;;;24.35;19.48;;;12.20;99.90;;;12.66;100.00;100273.78;5021299;28;20056;-78
2023/09/09 05:05:07;;;;;;;25.15;20.48;;;12.30;99.90;;;12.67;100.00;100272.72;5024448;28;20041;-78
2023/09/09 05:07:35;;;;;;;25.85;19.98;;;12.30;99.90;;;12.71;100.00;100257.47;5014733;28;20037;-78
2023/09/09 05:10:05;;;;;;;;;;;12.30;99.90;;;12.81;100.00;100251.38;5033701;28;20117;-78
2023/09/09 05:12:34;;;;;;;31.30;22.02;;;12.40;99.90;;;12.93;100.00;100240.41;5026500;28;19990;-78
2023/09/09 05:15:00;;;;;;;28.77;22.80;;;12.60;99.90;;;13.00;100.00;100229.31;5029247;28;20108;-78
2023/09/09 05:17:26;;;;;;;29.92;21.50;;;12.60;99.90;;;13.00;100.00;100224.69;5020983;28;20040;-78
2023/09/09 05:19:52;;;;;;;31.92;22.50;;;12.70;99.90;;;13.06;100.00;100215.50;5015211;28;20425;-78
2023/09/09 05:22:18;;;;;;;31.13;23.23;;;12.70;99.90;;;13.15;100.00;100229.63;5017245;28;20044;-78
2023/09/09 05:24:44;;;;;;;31.67;22.50;;;12.70;99.90;;;13.20;100.00;100217.94;5031804;28;20443;-78
2023/09/09 05:27:09;;;;;;;26.55;21.25;;;12.80;99.90;;;13.21;100.00;100222.34;5028549;28;20041;-78
2023/09/09 05:29:35;;;;;;;26.58;20.95;;;12.80;99.90;;;13.22;100.00;100226.72;5032168;28;20072;-78
2023/09/09 05:32:01;;;;;;;28.15;22.20;;;12.80;99.90;;;13.22;100.00;100218.50;5017826;28;20030;-78
2023/09/09 05:34:27;;;;;;;27.88;21.63;;;12.80;99.90;;;13.21;100.00;100222.34;5032085;28;20477;-78
2023/09/09 05:36:52;;;;;;;30.73;22.88;;;12.80;99.90;;;13.27;100.00;100221.38;5031904;28;20033;-78
2023/09/09 05:39:18;;;;;;;30.50;22.52;;;12.90;99.90;;;13.35;100.00;100229.19;5032246;28;20092;-78
2023/09/09 05:41:44;;;;;;;27.88;22.05;;;12.90;99.90;;;13.40;100.00;100213.91;5021444;28;20485;-78
2023/09/09 05:44:11;;;;;;;28.52;23.08;;;13.00;99.90;;;13.60;100.00;100221.69;5027926;28;20044;-78
2023/09/09 05:46:37;;;;;;;31.35;24.48;;;13.10;99.90;;;13.75;100.00;100212.91;5013892;28;20075;-78
2023/09/09 05:49:03;;;;;;;28.27;23.23;;;13.30;99.90;;;13.93;100.00;100209.91;5014169;28;20489;-78
2023/09/09 05:51:29;;;;;;;31.95;23.70;;;13.40;99.90;;;14.16;100.00;100219.03;5014869;28;20484;-78
2023/09/09 05:53:54;;;;;;;30.88;24.42;;;13.60;99.90;;;14.34;100.00;100217.09;5031760;28;20504;-78
2023/09/09 05:56:20;;;;;;;30.88;23.55;;;13.70;99.90;;;14.48;100.00;100203.84;5031893;28;20582;-78
2023/09/09 05:58:46;;;;;;;28.42;22.98;;;13.90;99.90;;;14.67;100.00;100207.13;5004346;28;20033;-78
2023/09/09 06:01:12;;;;;;;29.02;21.70;;;14.10;99.90;;;14.82;100.00;100212.00;5032078;28;20034;-78
2023/09/09 06:03:39;;;;;;;25.42;21.08;;;14.20;99.90;;;14.95;100.00;100214.34;5013623;28;20037;-78
2023/09/09 06:06:05;;;;;;;25.63;19.77;;;14.40;99.90;;;15.13;100.00;100245.31;5011803;28;20070;-78
2023/09/09 06:08:31;;;;;;;26.60;19.63;;;14.50;99.90;;;15.30;100.00;100280.13;5010668;28;20114;-78
2023/09/09 06:10:57;;;;;;;21.48;18.10;;;14.70;99.90;;;15.43;100.00;100336.63;5013684;28;20480;-78
2023/09/09 06:13:23;;;;;;;19.83;16.58;;;14.80;99.90;;;15.62;100.00;100417.66;5013587;28;20029;-79
2023/09/09 06:15:49;;;;;;;17.55;15.35;;;14.90;99.90;;;15.83;100.00;100486.66;5027996;28;20037;-78
2023/09/09 06:18:14;;;;;;;18.30;13.85;;;15.10;99.90;;;16.00;100.00;100527.06;5013983;28;20034;-78
2023/09/09 06:20:52;;;;;;;17.40;13.98;;;15.30;99.90;;;16.19;100.00;100566.94;5030358;28;20063;-77
2023/09/09 06:23:18;;;;;;;20.07;15.33;;;15.50;99.90;;;16.32;100.00;100575.88;5013054;28;20041;-78
2023/09/09 06:25:44;;;;;;;17.15;14.20;;;15.70;99.90;;;16.56;100.00;100592.94;5014099;28;20099;-77
2023/09/09 06:28:11;;;;;;;14.77;13.13;;;15.90;99.90;;;16.70;100.00;100609.88;5023928;28;20037;-77
2023/09/09 06:30:43;;;;;;;15.98;11.88;;;16.10;99.90;;;16.91;100.00;100648.69;5014660;28;20846;-77
2023/09/09 06:33:09;;;;;;;16.73;11.43;;;16.30;99.90;;;17.14;100.00;100707.38;5031751;28;20566;-77
2023/09/09 06:35:35;;;;;;;12.93;11.10;;;16.50;99.90;;;17.25;100.00;100736.72;5013507;28;20072;-77
2023/09/09 06:38:01;;;;;;;13.52;10.25;;;16.70;99.90;;;17.43;100.00;100776.88;5015528;28;20128;-77
2023/09/09 06:40:27;;;;;;;12.98;9.55;;;17.00;99.90;;;17.65;100.00;100785.09;5033153;28;20034;-78
2023/09/09 06:42:54;;;;;;;13.77;9.85;;;17.20;99.90;;;17.73;100.00;100793.97;5031266;28;20044;-78
2023/09/09 06:45:20;;;;;;;11.02;9.07;;;17.40;99.90;;;17.91;100.00;100807.41;5013698;28;20033;-78
2023/09/09 06:47:45;;;;;;;12.07;8.88;;;17.50;99.90;;;17.97;100.00;100811.88;5031396;28;20111;-78
2023/09/09 06:50:11;;;;;;;9.93;8.68;;;17.70;99.90;;;18.17;100.00;100817.84;5031427;28;20037;-78
2023/09/09 06:52:38;;;;;;;13.45;8.52;;;17.80;99.90;;;18.29;100.00;100834.22;5031117;28;20112;-77
2023/09/09 06:55:08;;;;;;;11.13;8.00;;;18.00;99.90;;;18.47;100.00;100850.41;5027074;28;20037;-78
2023/09/09 06:57:34;;;;;;;11.52;8.02;;;18.20;99.90;;;18.57;100.00;100857.13;5017584;28;20543;-78
2023/09/09 07:00:00;;;;;;;11.18;8.20;;;18.30;99.90;;;18.74;100.00;100868.81;5031130;28;20056;-78
2023/09/09 07:02:26;;;;;;;11.55;8.50;;;18.40;99.90;;;18.81;100.00;100861.09;5031155;28;20029;-78
2023/09/09 07:04:53;;;;;;;9.85;7.72;;;18.60;99.90;;;18.99;100.00;100863.75;5013140;28;20042;-79
2023/09/09 07:07:19;;;;;;;10.27;7.70;;;18.70;99.90;;;19.15;100.00;100867.41;5028053;28;20033;-78
2023/09/09 07:09:45;;;;;;;10.02;7.05;;;18.80;99.90;;;19.30;100.00;100867.47;5031223;28;20507;-78
2023/09/09 07:12:13;;;;;;;8.70;7.25;;;19.00;99.90;;;19.40;100.00;100877.75;5031060;28;20466;-79
2023/09/09 07:14:39;;;;;;;;;;;;;;;19.56;100.00;100875.84;5031356;28;20496;-78
2023/09/09 07:17:05;;;;;;;10.02;7.68;;;;;;;19.69;100.00;100880.88;5026431;28;19976;-78
2023/09/09 07:19:32;;;;;;;8.32;6.72;;;;;;;19.77;100.00;100881.47;5034247;28;20040;-77
2023/09/09 07:21:58;;;;;;;8.70;6.90;;;;;;;19.84;100.00;100887.56;5035192;28;20037;-78
2023/09/09 07:24:25;;;;;;;8.05;6.55;;;;;;;19.96;100.00;100888.19;5032266;28;20038;-78
2023/09/09 07:26:51;;;;;;;9.57;6.40;;;19.20;99.90;;;20.14;100.00;100885.97;5031228;28;20059;-78
2023/09/09 07:29:17;;;;;;;11.13;6.32;;;;;;;20.31;100.00;100890.41;5027842;28;20046;-78
2023/09/09 07:31:43;;;;;;;7.93;6.03;;;;;;;20.48;100.00;100892.91;5031145;28;20038;-79
2023/09/09 07:34:09;;;;;;;9.73;6.00;;;19.90;99.90;;;20.63;100.00;100898.44;5036580;28;20060;-79
2023/09/09 07:36:35;;;;;;;10.07;6.20;;;;;;;20.83;100.00;100902.34;5034414;28;20064;-79
2023/09/09 07:39:01;;;;;;;8.38;5.82;;;20.50;99.90;;;20.98;100.00;100904.25;5049761;28;20049;-79
2023/09/09 07:41:26;;;;;;;9.07;5.78;;;20.60;99.90;;;21.13;100.00;100901.41;5034599;28;20456;-78
2023/09/09 07:43:52;;;;;;;7.63;5.97;;;20.80;99.90;;;21.32;100.00;100906.34;5034618;28;20029;-79
2023/09/09 07:46:18;;;;;;;8.13;5.82;;;20.90;99.90;;;21.44;100.00;100911.56;5034463;28;20051;-79
2023/09/09 07:48:44;;;;;;;6.93;5.35;;;21.10;99.90;;;21.55;100.00;100915.13;5034444;28;20041;-79
2023/09/09 07:51:10;;;;;;;8.30;5.10;;;21.20;99.90;;;21.76;100.00;100917.84;5034405;28;20079;-79
2023/09/09 07:53:36;;;;;;;8.60;5.45;;;;;;;21.87;100.00;100913.88;5016662;28;20136;-79
2023/09/09 07:56:02;;;;;;;11.23;6.85;;;;;;;21.97;100.00;100913.81;5034438;28;20112;-79
2023/09/09 07:58:28;;;;;;;9.18;6.05;;;;;;;22.14;100.00;100912.59;5034314;28;20037;-79
2023/09/09 08:01:03;;;;;;;7.60;5.40;;;;;;;22.33;100.00;100914.69;5034059;28;20440;-79
2023/09/09 08:03:29;;;;;;;10.10;5.88;;;21.40;99.90;;;22.37;100.00;100915.75;5034013;28;20120;-79
2023/09/09 08:06:02;;;;;;;7.43;5.03;;;22.20;99.90;;;22.64;100.00;100918.03;5034322;28;20029;-78
2023/09/09 08:08:29;;;;;;;7.50;5.03;;;22.30;99.90;;;22.78;100.00;100926.53;5016815;28;20045;-79
2023/09/09 08:10:55;;;;;;;7.60;4.80;;;22.50;99.90;;;22.89;100.00;100921.69;5034271;28;20021;-79
2023/09/09 08:13:20;;;;;;;7.40;4.97;;;22.60;99.90;;;23.03;100.00;100924.59;5033993;28;20397;-79
2023/09/09 08:15:47;;;;;;;7.35;5.35;;;;;;;23.15;100.00;100928.94;5050476;28;20037;-79
2023/09/09 08:18:14;;;;;;;8.98;5.00;;;;;;;23.32;100.00;100934.06;5034000;28;20069;-79
2023/09/09 08:20:41;;;;;;;6.57;4.65;;;;;;;23.44;100.00;100936.44;5026377;28;20071;-79
2023/09/09 08:23:08;;;;;;;6.80;4.50;;;22.80;99.90;;;23.55;100.00;100937.97;5033964;28;20045;-78
2023/09/09 08:25:35;;;;;;;6.55;4.93;;;;;;;23.66;100.00;100933.09;5034846;28;20033;-77
2023/09/09 08:28:03;;;;;;;6.50;4.82;;;;;;;23.80;100.00;100935.97;5043130;28;20445;-79
2023/09/09 08:30:30;;;;;;;8.90;5.00;;;;;;;24.03;100.00;100933.44;5035204;28;20343;-78
2023/09/09 08:32:56;;;;;;;9.75;4.70;;;;;;;24.18;100.00;100937.97;5059057;28;20037;-78
2023/09/09 08:35:24;;;;;;;8.60;5.07;;;;;;;24.40;100.00;100926.16;5035248;28;20029;-78
2023/09/09 08:37:50;;;;;;;7.93;4.60;;;;;;;24.50;100.00;100933.53;5033945;28;20109;-77
2023/09/09 08:40:16;;;;;;;6.45;4.70;;;;;;;24.57;100.00;100928.41;5025408;28;20050;-79
2023/09/09 08:42:51;;;;;;;6.88;4.53;;;;;;;24.69;100.00;100936.31;5034185;28;20074;-78
2023/09/09 08:45:36;;;;;;;8.68;5.20;;;;;;;24.84;100.00;100941.63;5033548;28;20578;-78
2023/09/09 08:48:07;;;;;;;8.18;4.82;;;;;;;24.99;100.00;100937.72;5034459;28;20091;-78
2023/09/09 08:50:39;;;;;;;8.63;4.70;;;;;;;25.14;100.00;100941.38;5034822;28;20033;-78
2023/09/09 08:53:12;;;;;;;6.00;4.68;;;;;;;25.09;100.00;100936.69;5034438;28;20095;-78
2023/09/09 08:55:40;;;;;;;5.63;4.53;;;;;;;25.22;100.00;100942.63;5034160;28;20126;-78
2023/09/09 08:58:06;;;;;;;7.57;4.60;;;;;;;25.48;100.00;100937.34;5034409;28;20061;-78
2023/09/09 09:00:34;;;;;;;6.85;4.68;;;;;;;25.62;100.00;100942.13;5033816;28;20483;-78
2023/09/09 09:03:03;;;;;;;6.57;4.50;;;;;;;25.94;100.00;100952.28;5034241;28;20427;-78
2023/09/09 09:05:33;;;;;;;9.25;5.05;;;;;;;26.06;100.00;100948.94;5033177;28;20392;-79
2023/09/09 09:08:04;;;;;;;5.80;4.40;;;;;;;26.33;100.00;100950.00;5026059;28;20033;-79
2023/09/09 09:10:30;;;;;;;6.88;4.35;;;;;;;26.60;100.00;100947.41;5033979;28;20119;-79
2023/09/09 09:12:56;;;;;;;6.28;4.38;;;;;;;26.61;100.00;100947.06;5034082;28;20033;-79
2023/09/09 09:15:24;;;;;;;6.30;4.82;;;;;;;26.61;99.09;100946.28;5015964;28;20056;-79
2023/09/09 09:17:52;;;;;;;7.05;4.80;;;;;;;26.91;98.03;100946.63;5033766;28;20044;-79
2023/09/09 09:20:26;;;;;;;6.25;4.57;;;;;;;27.09;96.65;100948.38;5028006;28;20163;-79
2023/09/09 09:22:56;;;;;;;10.30;4.75;;;;;;;27.14;98.36;100948.22;5033814;28;20124;-79
2023/09/09 09:25:22;;;;;;;7.45;3.88;;;;;;;27.37;94.05;100944.53;5033798;28;20042;-79
2023/09/09 09:27:48;;;;;;;7.35;4.03;;;;;;;27.34;87.30;100946.00;5033374;28;20037;-78
2023/09/09 09:30:21;;;;;;;6.60;4.25;;;;;;;27.40;89.02;100947.50;5033026;28;20040;-78
2023/09/09 09:32:52;;;;;;;6.07;4.30;;;;;;;27.74;88.56;100944.31;5033402;28;20397;-79
2023/09/09 09:35:37;;;;;;;6.60;4.32;;;;;;;28.06;84.44;100942.19;5033342;28;20037;-79
2023/09/09 09:38:13;;;;;;;7.57;4.40;;;;;;;28.21;83.35;100941.75;5032860;28;20034;-78
2023/09/09 09:40:40;;;;;;;6.63;4.30;;;;;;;28.21;79.35;100949.31;5033559;28;20052;-78
2023/09/09 09:43:20;;;;;;;7.83;4.53;;;;;;;28.53;83.56;100950.78;5033920;28;20090;-79
2023/09/09 09:45:46;;;;;;;6.25;4.15;;;;;;;28.78;79.86;100950.22;5033373;28;20038;-79
2023/09/09 09:48:27;;;;;;;6.67;4.00;;;;;;;28.93;80.56;100948.91;5048503;28;20045;-79
2023/09/09 09:50:53;;;;;;;7.55;4.45;;;;;;;29.29;75.63;100944.81;5033327;28;20060;-78
2023/09/09 09:53:20;;;;;;;5.57;4.55;;;;;;;29.53;72.80;100949.81;5033010;28;20389;-79
2023/09/09 09:55:46;;;;;;;5.38;3.97;;;;;;;29.92;73.36;100946.09;5032814;28;20047;-79
2023/09/09 09:58:14;;;;;;;6.22;4.25;;;;;;;30.26;70.35;100950.66;5032725;28;20102;-79
2023/09/09 10:00:41;;;;;;;;;;;;;;;30.88;62.26;100946.41;5020311;28;20124;-79
2023/09/09 10:03:11;;;;;;;6.72;3.78;;;;;;;31.39;56.73;100946.97;5037898;28;20355;-79
2023/09/09 10:05:39;;;;;;;6.88;3.95;;;;;;;32.07;54.58;100947.47;5032937;28;20041;-79
2023/09/09 10:08:14;;;;;;;;;;;;;;;32.53;49.78;100946.38;4999226;28;20455;-81
2023/09/09 10:10:50;;;;;;;5.50;3.88;;;;;;;32.74;49.33;100948.13;5014749;28;19970;-79
2023/09/09 10:13:35;;;;;;;6.53;4.00;;;;;;;33.70;43.67;100932.00;5032876;28;20029;-79
2023/09/09 10:16:02;;;;;;;5.90;3.10;;;;;;;35.00;39.96;100932.97;5032409;28;20192;-80